Terminal Aerodrome Forecast
Issued by NWS Indianapolis, IN

Home | Current Version | Previous Version | Text Only | Print | Product List | Glossary On
Versions: 1 2 3 4 5 6 7 8 9 10 11 12 13 14 15 16 17 18 19 20 21 22 23 24 25 26 27
000
FTUS43 KIND 191339 AAF
TAFIND
TAF AMD
KIND 191339Z 1914/2018 19006KT P6SM -SHRA BKN010 OVC060
     FM191500 20006KT P6SM BKN025
     FM191800 22005KT P6SM VCTS BKN035CB BKN040
     FM192300 22004KT P6SM BKN025 BKN040
     FM200000 22004KT P6SM SCT040 BKN100
     FM200100 VRB03KT P6SM SCT110=

USA.gov is the U.S. government's official web portal to all federal, state and local government web resources and services.